sensor_id;sensor_type;location;lat;lon;timestamp;pressure;altitude;pressure_sealevel;temperature;humidity
12349;BME280;5974;42.710;27.258;2023-02-23T00:01:11;100214.97;;;7.28;100.00
12349;BME280;5974;42.710;27.258;2023-02-23T00:03:38;100206.00;;;7.38;100.00
12349;BME280;5974;42.710;27.258;2023-02-23T00:06:06;100212.00;;;7.42;100.00
12349;BME280;5974;42.710;27.258;2023-02-23T00:08:33;100212.13;;;7.37;100.00
12349;BME280;5974;42.710;27.258;2023-02-23T00:11:02;100206.78;;;7.42;100.00
12349;BME280;5974;42.710;27.258;2023-02-23T00:13:31;100205.44;;;7.29;100.00
12349;BME280;5974;42.710;27.258;2023-02-23T00:16:04;100180.19;;;6.98;100.00
12349;BME280;5974;42.710;27.258;2023-02-23T00:18:31;100206.31;;;7.28;100.00
12349;BME280;5974;42.710;27.258;2023-02-23T00:21:10;100204.59;;;7.27;100.00
12349;BME280;5974;42.710;27.258;2023-02-23T00:23:40;100212.16;;;7.36;100.00
12349;BME280;5974;42.710;27.258;2023-02-23T00:26:07;100208.59;;;7.40;100.00
12349;BME280;5974;42.710;27.258;2023-02-23T00:28:35;100206.00;;;7.38;100.00
12349;BME280;5974;42.710;27.258;2023-02-23T00:31:02;100206.72;;;7.45;100.00
12349;BME280;5974;42.710;27.258;2023-02-23T00:33:29;100217.28;;;7.39;100.00
12349;BME280;5974;42.710;27.258;2023-02-23T00:36:03;100214.81;;;7.34;100.00
12349;BME280;5974;42.710;27.258;2023-02-23T00:38:30;100210.63;;;7.29;100.00
12349;BME280;5974;42.710;27.258;2023-02-23T00:41:03;100188.81;;;7.00;100.00
12349;BME280;5974;42.710;27.258;2023-02-23T00:43:34;100209.28;;;7.13;100.00
12349;BME280;5974;42.710;27.258;2023-02-23T00:46:01;100210.94;;;7.17;100.00
12349;BME280;5974;42.710;27.258;2023-02-23T00:48:31;100209.44;;;7.06;100.00
12349;BME280;5974;42.710;27.258;2023-02-23T00:50:59;100206.00;;;7.04;100.00
12349;BME280;5974;42.710;27.258;2023-02-23T00:53:26;100213.00;;;7.04;100.00
12349;BME280;5974;42.710;27.258;2023-02-23T00:55:53;100206.25;;;6.95;100.00
12349;BME280;5974;42.710;27.258;2023-02-23T00:58:21;100208.97;;;6.91;100.00
12349;BME280;5974;42.710;27.258;2023-02-23T01:00:49;100201.19;;;6.89;100.00
12349;BME280;5974;42.710;27.258;2023-02-23T01:03:16;100204.72;;;6.88;100.00
12349;BME280;5974;42.710;27.258;2023-02-23T01:05:43;100213.00;;;6.67;100.00
12349;BME280;5974;42.710;27.258;2023-02-23T01:08:10;100199.47;;;6.53;100.00
12349;BME280;5974;42.710;27.258;2023-02-23T01:10:41;100205.72;;;6.46;100.00
12349;BME280;5974;42.710;27.258;2023-02-23T01:13:09;100202.28;;;6.44;100.00
12349;BME280;5974;42.710;27.258;2023-02-23T01:15:40;100201.34;;;6.46;100.00
12349;BME280;5974;42.710;27.258;2023-02-23T01:18:09;100217.13;;;6.37;100.00
12349;BME280;5974;42.710;27.258;2023-02-23T01:20:38;100204.53;;;6.21;100.00
12349;BME280;5974;42.710;27.258;2023-02-23T01:23:06;100199.47;;;6.15;100.00
12349;BME280;5974;42.710;27.258;2023-02-23T01:25:34;100217.66;;;6.13;100.00
12349;BME280;5974;42.710;27.258;2023-02-23T01:28:01;100211.13;;;5.95;100.00
12349;BME280;5974;42.710;27.258;2023-02-23T01:30:27;100207.78;;;5.90;100.00
12349;BME280;5974;42.710;27.258;2023-02-23T01:32:54;100211.59;;;5.70;100.00
12349;BME280;5974;42.710;27.258;2023-02-23T01:35:23;100211.66;;;5.67;100.00
12349;BME280;5974;42.710;27.258;2023-02-23T01:37:49;100223.84;;;5.62;100.00
12349;BME280;5974;42.710;27.258;2023-02-23T01:40:19;100220.19;;;5.26;100.00
12349;BME280;5974;42.710;27.258;2023-02-23T01:42:54;100218.81;;;5.07;100.00
12349;BME280;5974;42.710;27.258;2023-02-23T01:45:32;100215.56;;;4.94;100.00
12349;BME280;5974;42.710;27.258;2023-02-23T01:48:04;100214.78;;;4.87;100.00
12349;BME280;5974;42.710;27.258;2023-02-23T01:50:38;100217.38;;;4.87;100.00
12349;BME280;5974;42.710;27.258;2023-02-23T01:53:08;100221.91;;;4.75;100.00
12349;BME280;5974;42.710;27.258;2023-02-23T01:55:36;100220.13;;;4.77;100.00
12349;BME280;5974;42.710;27.258;2023-02-23T01:58:08;100217.00;;;4.57;100.00
12349;BME280;5974;42.710;27.258;2023-02-23T02:00:41;100227.16;;;4.70;100.00
12349;BME280;5974;42.710;27.258;2023-02-23T02:03:13;100217.94;;;4.51;100.00
12349;BME280;5974;42.710;27.258;2023-02-23T02:05:43;100231.44;;;4.71;100.00
12349;BME280;5974;42.710;27.258;2023-02-23T02:08:11;100226.06;;;4.85;100.00
12349;BME280;5974;42.710;27.258;2023-02-23T02:10:38;100227.00;;;4.79;100.00
12349;BME280;5974;42.710;27.258;2023-02-23T02:13:06;100216.66;;;4.78;100.00
12349;BME280;5974;42.710;27.258;2023-02-23T02:15:46;100244.28;;;4.77;100.00
12349;BME280;5974;42.710;27.258;2023-02-23T02:18:25;100238.88;;;4.92;100.00
12349;BME280;5974;42.710;27.258;2023-02-23T02:21:22;100242.78;;;5.18;100.00
12349;BME280;5974;42.710;27.258;2023-02-23T02:24:31;100236.94;;;5.07;100.00
12349;BME280;5974;42.710;27.258;2023-02-23T02:27:22;100230.06;;;5.04;100.00
12349;BME280;5974;42.710;27.258;2023-02-23T02:38:54;100238.13;;;5.38;100.00
12349;BME280;5974;42.710;27.258;2023-02-23T02:41:35;100232.91;;;5.39;100.00
12349;BME280;5974;42.710;27.258;2023-02-23T02:44:13;100241.16;;;5.61;100.00
12349;BME280;5974;42.710;27.258;2023-02-23T02:46:45;100235.66;;;5.78;100.00
12349;BME280;5974;42.710;27.258;2023-02-23T02:49:16;100241.78;;;5.72;100.00
12349;BME280;5974;42.710;27.258;2023-02-23T02:51:53;100231.00;;;5.49;100.00
12349;BME280;5974;42.710;27.258;2023-02-23T02:54:24;100237.50;;;5.71;100.00
12349;BME280;5974;42.710;27.258;2023-02-23T02:56:54;100239.19;;;5.74;100.00
12349;BME280;5974;42.710;27.258;2023-02-23T02:59:25;100238.38;;;5.70;100.00
12349;BME280;5974;42.710;27.258;2023-02-23T03:02:14;100235.56;;;5.82;100.00
12349;BME280;5974;42.710;27.258;2023-02-23T03:04:59;100235.66;;;5.76;100.00
12349;BME280;5974;42.710;27.258;2023-02-23T03:07:51;100234.81;;;5.77;100.00
12349;BME280;5974;42.710;27.258;2023-02-23T03:10:43;100238.19;;;5.81;100.00
12349;BME280;5974;42.710;27.258;2023-02-23T03:13:38;100231.19;;;5.87;100.00
12349;BME280;5974;42.710;27.258;2023-02-23T03:16:30;100233.13;;;5.75;100.00
12349;BME280;5974;42.710;27.258;2023-02-23T03:19:23;100234.84;;;5.74;100.00
12349;BME280;5974;42.710;27.258;2023-02-23T03:22:15;100237.41;;;5.76;100.00
12349;BME280;5974;42.710;27.258;2023-02-23T03:25:04;100245.06;;;5.83;100.00
12349;BME280;5974;42.710;27.258;2023-02-23T03:27:54;100249.34;;;5.86;100.00
12349;BME280;5974;42.710;27.258;2023-02-23T03:30:47;100242.94;;;6.04;100.00
12349;BME280;5974;42.710;27.258;2023-02-23T03:33:40;100251.69;;;5.99;100.00
12349;BME280;5974;42.710;27.258;2023-02-23T03:36:29;100259.25;;;6.10;100.00
12349;BME280;5974;42.710;27.258;2023-02-23T03:39:21;100247.94;;;6.13;100.00
12349;BME280;5974;42.710;27.258;2023-02-23T03:42:10;100263.00;;;6.37;100.00
12349;BME280;5974;42.710;27.258;2023-02-23T03:44:58;100255.94;;;6.43;100.00
12349;BME280;5974;42.710;27.258;2023-02-23T03:47:45;100262.50;;;6.61;100.00
12349;BME280;5974;42.710;27.258;2023-02-23T03:50:35;100257.66;;;6.46;100.00
12349;BME280;5974;42.710;27.258;2023-02-23T03:53:25;100260.19;;;6.47;100.00
12349;BME280;5974;42.710;27.258;2023-02-23T03:56:14;100267.22;;;6.82;100.00
12349;BME280;5974;42.710;27.258;2023-02-23T03:59:01;100265.50;;;6.81;100.00
12349;BME280;5974;42.710;27.258;2023-02-23T04:01:50;100267.38;;;6.75;100.00
12349;BME280;5974;42.710;27.258;2023-02-23T04:04:39;100265.63;;;6.75;100.00
12349;BME280;5974;42.710;27.258;2023-02-23T04:07:24;100272.94;;;6.96;100.00
12349;BME280;5974;42.710;27.258;2023-02-23T04:10:09;100265.81;;;7.04;100.00
12349;BME280;5974;42.710;27.258;2023-02-23T04:12:58;100273.00;;;6.93;100.00
12349;BME280;5974;42.710;27.258;2023-02-23T04:15:46;100270.34;;;6.96;100.00
12349;BME280;5974;42.710;27.258;2023-02-23T04:18:16;100272.56;;;7.12;100.00
12349;BME280;5974;42.710;27.258;2023-02-23T04:20:44;100265.97;;;7.32;100.00
12349;BME280;5974;42.710;27.258;2023-02-23T04:23:10;100268.88;;;7.20;100.00
12349;BME280;5974;42.710;27.258;2023-02-23T04:25:37;100269.41;;;7.34;100.00
12349;BME280;5974;42.710;27.258;2023-02-23T04:28:04;100265.00;;;7.38;100.00
12349;BME280;5974;42.710;27.258;2023-02-23T04:30:31;100259.91;;;7.33;100.00
12349;BME280;5974;42.710;27.258;2023-02-23T04:32:58;100273.19;;;7.56;100.00
12349;BME280;5974;42.710;27.258;2023-02-23T04:35:27;100264.91;;;7.75;100.00
12349;BME280;5974;42.710;27.258;2023-02-23T04:37:56;100261.91;;;7.88;100.00
12349;BME280;5974;42.710;27.258;2023-02-23T04:40:22;100260.31;;;7.83;100.00
12349;BME280;5974;42.710;27.258;2023-02-23T04:42:49;100259.47;;;7.82;100.00
12349;BME280;5974;42.710;27.258;2023-02-23T04:45:16;100266.81;;;7.68;100.00
12349;BME280;5974;42.710;27.258;2023-02-23T04:47:43;100280.69;;;7.69;100.00
12349;BME280;5974;42.710;27.258;2023-02-23T04:50:11;100267.34;;;7.81;100.00
12349;BME280;5974;42.710;27.258;2023-02-23T04:52:39;100265.81;;;8.03;100.00
12349;BME280;5974;42.710;27.258;2023-02-23T04:55:07;100268.66;;;7.95;100.00
12349;BME280;5974;42.710;27.258;2023-02-23T04:57:34;100265.97;;;7.98;100.00
12349;BME280;5974;42.710;27.258;2023-02-23T05:00:01;100272.38;;;7.87;100.00
12349;BME280;5974;42.710;27.258;2023-02-23T05:02:29;100255.25;;;7.78;100.00
12349;BME280;5974;42.710;27.258;2023-02-23T05:04:56;100248.63;;;7.97;100.00
12349;BME280;5974;42.710;27.258;2023-02-23T05:07:23;100271.34;;;7.92;100.00
12349;BME280;5974;42.710;27.258;2023-02-23T05:09:51;100275.34;;;8.04;100.00
12349;BME280;5974;42.710;27.258;2023-02-23T05:12:18;100284.47;;;8.18;100.00
12349;BME280;5974;42.710;27.258;2023-02-23T05:14:45;100287.50;;;8.05;100.00
12349;BME280;5974;42.710;27.258;2023-02-23T05:17:11;100288.00;;;8.17;100.00
12349;BME280;5974;42.710;27.258;2023-02-23T05:19:38;100293.66;;;8.33;100.00
12349;BME280;5974;42.710;27.258;2023-02-23T05:22:05;100293.41;;;8.42;100.00
12349;BME280;5974;42.710;27.258;2023-02-23T05:24:37;100295.56;;;8.57;100.00
12349;BME280;5974;42.710;27.258;2023-02-23T05:27:05;100300.31;;;8.73;100.00
12349;BME280;5974;42.710;27.258;2023-02-23T05:29:32;100295.91;;;8.75;100.00
12349;BME280;5974;42.710;27.258;2023-02-23T05:31:59;100314.78;;;8.83;100.00
12349;BME280;5974;42.710;27.258;2023-02-23T05:34:26;100303.13;;;8.94;100.00
12349;BME280;5974;42.710;27.258;2023-02-23T05:36:53;100299.25;;;8.80;100.00
12349;BME280;5974;42.710;27.258;2023-02-23T05:39:20;100313.00;;;8.83;100.00
12349;BME280;5974;42.710;27.258;2023-02-23T05:41:46;100319.63;;;8.65;100.00
12349;BME280;5974;42.710;27.258;2023-02-23T05:44:15;100327.97;;;8.47;100.00
12349;BME280;5974;42.710;27.258;2023-02-23T05:46:44;100328.97;;;8.43;100.00
12349;BME280;5974;42.710;27.258;2023-02-23T05:49:10;100341.38;;;8.64;100.00
12349;BME280;5974;42.710;27.258;2023-02-23T05:51:38;100337.56;;;8.76;100.00
12349;BME280;5974;42.710;27.258;2023-02-23T05:54:05;100337.22;;;8.88;100.00
12349;BME280;5974;42.710;27.258;2023-02-23T05:56:32;100344.38;;;8.80;100.00
12349;BME280;5974;42.710;27.258;2023-02-23T05:58:59;100352.06;;;8.55;100.00
12349;BME280;5974;42.710;27.258;2023-02-23T06:01:28;100356.72;;;8.75;100.00
12349;BME280;5974;42.710;27.258;2023-02-23T06:03:55;100364.06;;;8.90;100.00
12349;BME280;5974;42.710;27.258;2023-02-23T06:06:22;100375.69;;;9.08;100.00
12349;BME280;5974;42.710;27.258;2023-02-23T06:08:50;100370.69;;;9.30;100.00
12349;BME280;5974;42.710;27.258;2023-02-23T06:11:17;100370.09;;;9.48;100.00
12349;BME280;5974;42.710;27.258;2023-02-23T06:13:44;100371.38;;;9.62;100.00
12349;BME280;5974;42.710;27.258;2023-02-23T06:16:12;100369.38;;;9.70;100.00
12349;BME280;5974;42.710;27.258;2023-02-23T06:18:40;100371.94;;;9.72;100.00
12349;BME280;5974;42.710;27.258;2023-02-23T06:21:07;100381.56;;;9.70;100.00
12349;BME280;5974;42.710;27.258;2023-02-23T06:23:34;100377.84;;;9.77;100.00
12349;BME280;5974;42.710;27.258;2023-02-23T06:26:01;100378.63;;;10.05;100.00
12349;BME280;5974;42.710;27.258;2023-02-23T06:28:28;100382.72;;;10.12;100.00
12349;BME280;5974;42.710;27.258;2023-02-23T06:30:55;100383.91;;;10.30;100.00
12349;BME280;5974;42.710;27.258;2023-02-23T06:33:23;100379.09;;;10.66;100.00
12349;BME280;5974;42.710;27.258;2023-02-23T06:35:51;100381.38;;;10.52;100.00
12349;BME280;5974;42.710;27.258;2023-02-23T06:38:19;100375.63;;;9.91;100.00
12349;BME280;5974;42.710;27.258;2023-02-23T06:40:46;100375.78;;;9.87;100.00
12349;BME280;5974;42.710;27.258;2023-02-23T06:43:13;100376.75;;;9.84;100.00
12349;BME280;5974;42.710;27.258;2023-02-23T06:45:40;100382.50;;;10.68;100.00
12349;BME280;5974;42.710;27.258;2023-02-23T06:48:07;100380.28;;;10.57;100.00
12349;BME280;5974;42.710;27.258;2023-02-23T06:50:34;100386.56;;;10.76;100.00
12349;BME280;5974;42.710;27.258;2023-02-23T06:53:02;100371.38;;;11.31;100.00
12349;BME280;5974;42.710;27.258;2023-02-23T06:55:29;100380.38;;;11.89;100.00
12349;BME280;5974;42.710;27.258;2023-02-23T06:57:57;100375.09;;;11.25;100.00
12349;BME280;5974;42.710;27.258;2023-02-23T07:00:23;100378.41;;;11.51;100.00
12349;BME280;5974;42.710;27.258;2023-02-23T07:02:50;100380.56;;;11.63;100.00
12349;BME280;5974;42.710;27.258;2023-02-23T07:05:17;100376.03;;;11.88;100.00
12349;BME280;5974;42.710;27.258;2023-02-23T07:07:45;100389.72;;;11.74;100.00
12349;BME280;5974;42.710;27.258;2023-02-23T07:10:13;100384.13;;;11.17;100.00
12349;BME280;5974;42.710;27.258;2023-02-23T07:12:40;100386.50;;;11.01;100.00
12349;BME280;5974;42.710;27.258;2023-02-23T07:15:08;100381.34;;;11.21;100.00
12349;BME280;5974;42.710;27.258;2023-02-23T07:17:35;100387.22;;;11.05;100.00
12349;BME280;5974;42.710;27.258;2023-02-23T07:20:03;100384.66;;;11.03;100.00
12349;BME280;5974;42.710;27.258;2023-02-23T07:22:30;100375.50;;;11.15;100.00
12349;BME280;5974;42.710;27.258;2023-02-23T07:24:58;100378.78;;;11.41;100.00
12349;BME280;5974;42.710;27.258;2023-02-23T07:27:26;100388.06;;;11.05;100.00
12349;BME280;5974;42.710;27.258;2023-02-23T07:29:53;100388.94;;;11.06;100.00
12349;BME280;5974;42.710;27.258;2023-02-23T07:32:20;100389.91;;;11.03;100.00
12349;BME280;5974;42.710;27.258;2023-02-23T07:34:47;100381.75;;;11.32;100.00
12349;BME280;5974;42.710;27.258;2023-02-23T07:37:14;100382.97;;;11.67;100.00
12349;BME280;5974;42.710;27.258;2023-02-23T07:39:41;100394.44;;;11.43;100.00
12349;BME280;5974;42.710;27.258;2023-02-23T07:42:08;100384.94;;;11.62;100.00
12349;BME280;5974;42.710;27.258;2023-02-23T07:44:37;100379.03;;;11.35;100.00
12349;BME280;5974;42.710;27.258;2023-02-23T07:47:04;100394.00;;;11.54;100.00
12349;BME280;5974;42.710;27.258;2023-02-23T07:49:32;100388.13;;;11.70;100.00
12349;BME280;5974;42.710;27.258;2023-02-23T07:51:59;100389.63;;;11.54;100.00
12349;BME280;5974;42.710;27.258;2023-02-23T07:54:26;100387.72;;;12.01;100.00
12349;BME280;5974;42.710;27.258;2023-02-23T07:56:52;100398.88;;;11.84;100.00
12349;BME280;5974;42.710;27.258;2023-02-23T07:59:19;100388.09;;;11.72;100.00
12349;BME280;5974;42.710;27.258;2023-02-23T08:01:48;100387.19;;;11.93;100.00
12349;BME280;5974;42.710;27.258;2023-02-23T08:04:16;100391.78;;;12.08;100.00
12349;BME280;5974;42.710;27.258;2023-02-23T08:06:43;100388.63;;;12.00;100.00
12349;BME280;5974;42.710;27.258;2023-02-23T08:09:10;100391.63;;;11.69;100.00
12349;BME280;5974;42.710;27.258;2023-02-23T08:11:37;100392.34;;;11.74;100.00
12349;BME280;5974;42.710;27.258;2023-02-23T08:14:04;100391.41;;;12.17;100.00
12349;BME280;5974;42.710;27.258;2023-02-23T08:16:32;100382.66;;;12.57;100.00
12349;BME280;5974;42.710;27.258;2023-02-23T08:19:00;100384.06;;;12.83;100.00
12349;BME280;5974;42.710;27.258;2023-02-23T08:21:28;100385.75;;;12.85;100.00
12349;BME280;5974;42.710;27.258;2023-02-23T08:23:55;100385.19;;;12.97;100.00
12349;BME280;5974;42.710;27.258;2023-02-23T08:26:22;100393.81;;;12.81;100.00
12349;BME280;5974;42.710;27.258;2023-02-23T08:28:50;100392.59;;;12.69;100.00
12349;BME280;5974;42.710;27.258;2023-02-23T08:31:17;100396.75;;;12.55;100.00
12349;BME280;5974;42.710;27.258;2023-02-23T08:33:46;100394.94;;;12.55;100.00
12349;BME280;5974;42.710;27.258;2023-02-23T08:36:14;100405.06;;;12.83;100.00
12349;BME280;5974;42.710;27.258;2023-02-23T08:38:41;100402.13;;;12.52;100.00
12349;BME280;5974;42.710;27.258;2023-02-23T08:41:08;100405.16;;;12.81;100.00
12349;BME280;5974;42.710;27.258;2023-02-23T08:43:34;100408.84;;;13.16;100.00
12349;BME280;5974;42.710;27.258;2023-02-23T08:46:03;100415.28;;;13.09;100.00
12349;BME280;5974;42.710;27.258;2023-02-23T08:48:31;100400.97;;;12.96;100.00
12349;BME280;5974;42.710;27.258;2023-02-23T08:50:58;100406.69;;;13.43;100.00
12349;BME280;5974;42.710;27.258;2023-02-23T08:53:26;100407.25;;;13.49;100.00
12349;BME280;5974;42.710;27.258;2023-02-23T08:55:55;100413.56;;;13.45;100.00
12349;BME280;5974;42.710;27.258;2023-02-23T08:58:22;100404.63;;;13.12;98.97
12349;BME280;5974;42.710;27.258;2023-02-23T09:00:49;100423.44;;;13.22;100.00
12349;BME280;5974;42.710;27.258;2023-02-23T09:03:16;100418.06;;;13.61;96.96
12349;BME280;5974;42.710;27.258;2023-02-23T09:05:43;100423.19;;;13.07;97.89
12349;BME280;5974;42.710;27.258;2023-02-23T09:08:11;100422.09;;;13.13;100.00
12349;BME280;5974;42.710;27.258;2023-02-23T09:10:40;100425.78;;;13.46;98.14
12349;BME280;5974;42.710;27.258;2023-02-23T09:13:08;100430.66;;;13.17;97.82
12349;BME280;5974;42.710;27.258;2023-02-23T09:15:36;100434.09;;;12.98;97.21
12349;BME280;5974;42.710;27.258;2023-02-23T09:18:04;100436.19;;;12.92;98.50
12349;BME280;5974;42.710;27.258;2023-02-23T09:20:31;100453.38;;;12.59;97.72
12349;BME280;5974;42.710;27.258;2023-02-23T09:22:58;100450.13;;;12.54;99.73
12349;BME280;5974;42.710;27.258;2023-02-23T09:25:26;100440.34;;;12.96;99.29
12349;BME280;5974;42.710;27.258;2023-02-23T09:27:55;100446.50;;;13.52;97.30
12349;BME280;5974;42.710;27.258;2023-02-23T09:30:24;100448.56;;;13.09;96.92
12349;BME280;5974;42.710;27.258;2023-02-23T09:32:54;100452.53;;;13.17;96.11
12349;BME280;5974;42.710;27.258;2023-02-23T09:35:22;100452.16;;;12.67;98.89
12349;BME280;5974;42.710;27.258;2023-02-23T09:37:52;100449.56;;;13.43;97.46
12349;BME280;5974;42.710;27.258;2023-02-23T09:40:21;100454.63;;;13.84;94.83
12349;BME280;5974;42.710;27.258;2023-02-23T09:42:57;100448.81;;;13.77;94.51
12349;BME280;5974;42.710;27.258;2023-02-23T09:45:30;100444.13;;;14.01;93.40
12349;BME280;5974;42.710;27.258;2023-02-23T09:48:09;100449.41;;;13.65;91.04
12349;BME280;5974;42.710;27.258;2023-02-23T09:50:37;100459.09;;;13.82;90.92
12349;BME280;5974;42.710;27.258;2023-02-23T09:53:19;100468.84;;;13.24;92.20
12349;BME280;5974;42.710;27.258;2023-02-23T09:55:47;100462.88;;;13.76;90.92
12349;BME280;5974;42.710;27.258;2023-02-23T09:58:21;100447.78;;;13.25;91.40
12349;BME280;5974;42.710;27.258;2023-02-23T10:00:53;100447.88;;;13.03;93.56
12349;BME280;5974;42.710;27.258;2023-02-23T10:03:26;100463.16;;;12.75;94.98
12349;BME280;5974;42.710;27.258;2023-02-23T10:05:58;100477.13;;;12.56;96.12
12349;BME280;5974;42.710;27.258;2023-02-23T10:08:41;100458.31;;;12.66;97.18
12349;BME280;5974;42.710;27.258;2023-02-23T10:11:20;100457.97;;;12.74;95.74
12349;BME280;5974;42.710;27.258;2023-02-23T10:13:59;100443.16;;;13.30;93.38
12349;BME280;5974;42.710;27.258;2023-02-23T10:16:39;100466.44;;;12.60;93.49
12349;BME280;5974;42.710;27.258;2023-02-23T10:19:14;100457.84;;;12.57;94.35
12349;BME280;5974;42.710;27.258;2023-02-23T10:21:46;100455.88;;;12.82;94.92
12349;BME280;5974;42.710;27.258;2023-02-23T10:24:20;100453.31;;;12.60;94.06
12349;BME280;5974;42.710;27.258;2023-02-23T10:26:51;100463.94;;;12.77;94.10
12349;BME280;5974;42.710;27.258;2023-02-23T10:29:26;100467.75;;;12.70;94.08
12349;BME280;5974;42.710;27.258;2023-02-23T10:31:57;100463.59;;;12.85;93.98
12349;BME280;5974;42.710;27.258;2023-02-23T10:34:26;100465.81;;;12.74;93.42
12349;BME280;5974;42.710;27.258;2023-02-23T10:36:57;100457.59;;;13.01;93.59
12349;BME280;5974;42.710;27.258;2023-02-23T10:39:26;100467.91;;;12.67;94.56
12349;BME280;5974;42.710;27.258;2023-02-23T10:41:56;100462.38;;;12.53;95.34
12349;BME280;5974;42.710;27.258;2023-02-23T10:44:26;100466.63;;;12.76;94.18
12349;BME280;5974;42.710;27.258;2023-02-23T10:46:56;100461.72;;;12.68;94.61
12349;BME280;5974;42.710;27.258;2023-02-23T10:49:27;100456.09;;;12.96;94.62
12349;BME280;5974;42.710;27.258;2023-02-23T10:51:56;100454.78;;;12.67;93.67
12349;BME280;5974;42.710;27.258;2023-02-23T10:54:43;100459.53;;;13.17;93.63
12349;BME280;5974;42.710;27.258;2023-02-23T10:57:18;100459.69;;;13.14;92.36
12349;BME280;5974;42.710;27.258;2023-02-23T11:00:10;100454.69;;;12.69;91.11
12349;BME280;5974;42.710;27.258;2023-02-23T11:02:52;100465.28;;;12.67;91.49
12349;BME280;5974;42.710;27.258;2023-02-23T11:05:44;100458.94;;;12.71;91.71
12349;BME280;5974;42.710;27.258;2023-02-23T11:08:18;100455.13;;;12.39;93.20
12349;BME280;5974;42.710;27.258;2023-02-23T11:10:57;100463.22;;;12.54;92.84
12349;BME280;5974;42.710;27.258;2023-02-23T11:13:26;100447.09;;;13.01;92.22
12349;BME280;5974;42.710;27.258;2023-02-23T11:16:00;100450.78;;;12.97;90.54
12349;BME280;5974;42.710;27.258;2023-02-23T11:18:29;100439.25;;;13.20;91.17
12349;BME280;5974;42.710;27.258;2023-02-23T11:20:56;100449.91;;;13.17;90.63
12349;BME280;5974;42.710;27.258;2023-02-23T11:23:25;100443.50;;;13.60;89.16
12349;BME280;5974;42.710;27.258;2023-02-23T11:25:55;100447.56;;;13.11;88.67
12349;BME280;5974;42.710;27.258;2023-02-23T11:28:28;100452.03;;;12.89;91.15
12349;BME280;5974;42.710;27.258;2023-02-23T11:30:59;100446.00;;;12.87;91.04
12349;BME280;5974;42.710;27.258;2023-02-23T11:33:29;100448.34;;;12.54;92.17
12349;BME280;5974;42.710;27.258;2023-02-23T11:36:14;100453.84;;;12.68;94.28
12349;BME280;5974;42.710;27.258;2023-02-23T11:38:43;100438.84;;;12.52;93.50
12349;BME280;5974;42.710;27.258;2023-02-23T11:41:19;100445.19;;;13.05;93.33
12349;BME280;5974;42.710;27.258;2023-02-23T11:43:48;100457.28;;;12.70;91.06
12349;BME280;5974;42.710;27.258;2023-02-23T11:46:17;100456.81;;;12.61;91.30
12349;BME280;5974;42.710;27.258;2023-02-23T11:48:49;100445.78;;;11.90;92.52
12349;BME280;5974;42.710;27.258;2023-02-23T11:51:25;100445.91;;;12.29;96.40
12349;BME280;5974;42.710;27.258;2023-02-23T11:53:53;100440.50;;;12.12;94.65
12349;BME280;5974;42.710;27.258;2023-02-23T11:56:22;100447.44;;;12.15;96.49
12349;BME280;5974;42.710;27.258;2023-02-23T11:58:51;100453.50;;;12.56;94.39
12349;BME280;5974;42.710;27.258;2023-02-23T12:01:27;100436.28;;;12.89;93.89
12349;BME280;5974;42.710;27.258;2023-02-23T12:04:00;100456.16;;;12.35;96.58
12349;BME280;5974;42.710;27.258;2023-02-23T12:06:29;100448.66;;;12.26;98.24
12349;BME280;5974;42.710;27.258;2023-02-23T12:09:00;100455.69;;;12.26;97.91
12349;BME280;5974;42.710;27.258;2023-02-23T12:11:33;100464.09;;;12.12;100.00
12349;BME280;5974;42.710;27.258;2023-02-23T12:14:06;100469.16;;;11.97;100.00
12349;BME280;5974;42.710;27.258;2023-02-23T12:16:40;100453.84;;;11.86;100.00
12349;BME280;5974;42.710;27.258;2023-02-23T12:19:21;100467.34;;;11.97;99.83
12349;BME280;5974;42.710;27.258;2023-02-23T12:21:54;100476.00;;;12.21;97.51
12349;BME280;5974;42.710;27.258;2023-02-23T12:24:28;100465.72;;;12.36;98.74
12349;BME280;5974;42.710;27.258;2023-02-23T12:27:00;100473.06;;;12.07;98.72
12349;BME280;5974;42.710;27.258;2023-02-23T12:29:34;100468.56;;;12.10;99.02
12349;BME280;5974;42.710;27.258;2023-02-23T12:32:05;100470.75;;;12.41;96.93
12349;BME280;5974;42.710;27.258;2023-02-23T12:34:41;100475.78;;;11.60;98.13
12349;BME280;5974;42.710;27.258;2023-02-23T12:37:19;100477.34;;;11.66;100.00
12349;BME280;5974;42.710;27.258;2023-02-23T12:39:56;100483.25;;;11.48;100.00
12349;BME280;5974;42.710;27.258;2023-02-23T12:42:29;100477.34;;;11.66;99.43
12349;BME280;5974;42.710;27.258;2023-02-23T12:45:04;100487.00;;;11.87;100.00
12349;BME280;5974;42.710;27.258;2023-02-23T12:47:35;100483.75;;;12.02;99.35
12349;BME280;5974;42.710;27.258;2023-02-23T12:50:05;100486.56;;;11.98;97.29
12349;BME280;5974;42.710;27.258;2023-02-23T12:52:42;100492.13;;;11.67;97.78
12349;BME280;5974;42.710;27.258;2023-02-23T12:55:12;100498.53;;;11.36;98.90
12349;BME280;5974;42.710;27.258;2023-02-23T12:57:44;100500.03;;;11.43;99.31
12349;BME280;5974;42.710;27.258;2023-02-23T13:00:33;100466.38;;;11.33;99.20
12349;BME280;5974;42.710;27.258;2023-02-23T13:06:09;100460.31;;;11.09;99.05
12349;BME280;5974;42.710;27.258;2023-02-23T13:08:52;100498.25;;;10.98;99.57
12349;BME280;5974;42.710;27.258;2023-02-23T13:11:28;100504.06;;;11.29;99.77
12349;BME280;5974;42.710;27.258;2023-02-23T13:14:10;100514.53;;;11.06;100.00
12349;BME280;5974;42.710;27.258;2023-02-23T13:16:43;100518.66;;;11.11;99.45
12349;BME280;5974;42.710;27.258;2023-02-23T13:19:17;100520.50;;;11.09;100.00
12349;BME280;5974;42.710;27.258;2023-02-23T13:21:51;100509.25;;;11.07;100.00
12349;BME280;5974;42.710;27.258;2023-02-23T13:24:22;100521.19;;;11.14;100.00